Time;durP1;ratioP1;P1;durP2;ratioP2;P2;SDS_P1;SDS_P2;PMS_P1;PMS_P2;Temp;Humidity;BMP_temperature;BMP_pressure;BME280_temperature;BME280_humidity;BME280_pressure;Samples;Min_cycle;Max_cycle;Signal;HPM_P1;HPM_P2
2023/01/24 00:01:51;;;;;;;;;32.50;28.75;;;;;5.04;58.30;102890.72;4942720;28;45369;-53
2023/01/24 00:04:16;;;;;;;;;30.25;27.25;;;;;5.01;58.50;102888.88;4942449;28;45525;-51
2023/01/24 00:06:41;;;;;;;;;30.50;28.25;;;;;4.96;58.78;102887.81;4942638;28;45637;-53
2023/01/24 00:09:07;;;;;;;;;32.75;28.50;;;;;4.95;58.57;102898.16;4942640;28;45404;-52
2023/01/24 00:11:32;;;;;;;;;31.75;29.75;;;;;4.93;58.20;102890.28;4942541;28;45360;-53
2023/01/24 00:13:57;;;;;;;;;33.00;29.00;;;;;4.91;58.38;102891.94;4942294;28;45383;-52
2023/01/24 00:16:23;;;;;;;;;30.75;23.50;;;;;4.90;58.68;102889.25;4942643;28;45300;-49
2023/01/24 00:18:49;;;;;;;;;30.50;27.75;;;;;4.88;58.50;102897.00;4942633;28;45319;-53
2023/01/24 00:21:23;;;;;;;;;32.50;28.50;;;;;4.86;58.42;102896.03;4942471;28;45246;-53
2023/01/24 00:23:50;;;;;;;;;36.75;31.25;;;;;4.79;58.67;102884.47;4942719;28;45356;-52
2023/01/24 00:26:17;;;;;;;;;32.75;26.50;;;;;4.79;58.50;102900.09;4942156;28;45589;-51
2023/01/24 00:28:42;;;;;;;;;41.00;34.00;;;;;4.77;58.62;102891.31;4941763;28;46154;-50
2023/01/24 00:31:08;;;;;;;;;42.25;31.25;;;;;4.74;58.75;102896.38;4942304;28;45181;-53
2023/01/24 00:33:34;;;;;;;;;36.50;34.00;;;;;4.72;58.52;102896.31;4942539;28;45404;-53
2023/01/24 00:36:00;;;;;;;;;45.00;36.50;;;;;4.71;58.51;102891.03;4942184;28;45345;-50
2023/01/24 00:38:27;;;;;;;;;38.50;33.00;;;;;4.69;58.75;102882.25;4942260;28;45979;-53
2023/01/24 00:40:52;;;;;;;;;44.50;36.25;;;;;4.67;58.38;102878.72;4942185;28;45317;-52
2023/01/24 00:43:18;;;;;;;;;35.75;34.25;;;;;4.66;58.88;102877.81;4942067;28;45339;-51
2023/01/24 00:45:45;;;;;;;;;36.00;30.75;;;;;4.62;58.69;102870.69;4924788;28;45375;-52
2023/01/24 00:48:11;;;;;;;;;35.75;30.50;;;;;4.65;58.52;102869.94;4942071;28;47083;-52
2023/01/24 00:50:36;;;;;;;;;41.00;33.25;;;;;4.63;58.99;102871.56;4942000;28;45236;-53
2023/01/24 00:53:02;;;;;;;;;39.75;33.50;;;;;4.60;58.98;102874.06;4942156;28;45282;-53
2023/01/24 00:55:28;;;;;;;;;38.25;33.50;;;;;4.58;58.73;102875.69;4924891;28;45289;-52
2023/01/24 00:57:53;;;;;;;;;35.00;29.50;;;;;4.54;58.82;102870.34;4941578;28;46027;-52
2023/01/24 01:00:20;;;;;;;;;43.25;35.50;;;;;4.53;58.77;102881.59;4924846;28;45334;-52
2023/01/24 01:02:45;;;;;;;;;43.00;36.75;;;;;4.52;59.05;102884.13;4942186;28;45548;-52
2023/01/24 01:05:10;;;;;;;;;37.75;33.00;;;;;4.53;58.72;102885.91;4941767;28;45293;-52
2023/01/24 01:07:36;;;;;;;;;34.50;28.50;;;;;4.51;59.09;102888.44;4942041;28;45474;-54
2023/01/24 01:10:02;;;;;;;;;47.00;36.00;;;;;4.50;58.93;102886.66;4941855;28;45308;-54
2023/01/24 01:12:27;;;;;;;;;35.25;31.25;;;;;4.50;58.90;102891.88;4941415;28;45373;-52
2023/01/24 01:14:53;;;;;;;;;38.25;32.50;;;;;4.49;58.65;102892.69;4941777;28;45433;-53
2023/01/24 01:17:18;;;;;;;;;43.75;36.75;;;;;4.47;58.99;102891.72;4940879;28;46296;-53
2023/01/24 01:19:43;;;;;;;;;41.00;36.00;;;;;4.42;59.05;102882.81;4941705;28;45336;-52
2023/01/24 01:22:09;;;;;;;;;41.75;37.50;;;;;4.47;59.26;102888.25;4941824;28;45236;-53
2023/01/24 01:24:34;;;;;;;;;49.75;40.00;;;;;4.45;58.91;102888.16;4924219;28;45584;-52
2023/01/24 01:26:59;;;;;;;;;43.50;35.25;;;;;4.45;59.30;102888.16;4941429;28;46170;-54
2023/01/24 01:29:25;;;;;;;;;43.25;34.50;;;;;4.45;59.34;102888.16;4941286;28;45211;-51
2023/01/24 01:31:51;;;;;;;;;39.25;30.00;;;;;4.42;59.40;102890.63;4941641;28;45221;-53
2023/01/24 01:34:16;;;;;;;;;42.00;35.25;;;;;4.42;59.17;102895.84;4941575;28;45553;-53
2023/01/24 01:36:42;;;;;;;;;38.25;34.50;;;;;4.42;59.19;102898.44;4941406;28;46120;-52
2023/01/24 01:39:07;;;;;;;;;42.75;32.00;;;;;4.44;59.30;102907.22;4941286;28;45169;-53
2023/01/24 01:41:32;;;;;;;;;44.50;35.00;;;;;4.46;59.14;102900.34;4941599;28;45505;-52
2023/01/24 01:47:31;;;;;;;;;27.00;19.50;;;;;4.48;59.37;102903.03;4941601;28;45812;-53
2023/01/24 01:50:14;;;;;;;;;41.00;34.25;;;;;4.47;59.14;102902.13;4930871;28;45362;-52
2023/01/24 01:52:42;;;;;;;;;44.75;39.50;;;;;4.49;59.33;102899.59;4928666;28;45451;-51
2023/01/24 01:55:14;;;;;;;;;48.00;37.50;;;;;4.49;59.32;102904.81;4924116;28;45242;-50
2023/01/24 01:57:41;;;;;;;;;48.75;38.50;;;;;4.46;59.33;102904.69;4941009;28;45432;-51
2023/01/24 02:00:13;;;;;;;;;42.75;39.00;;;;;4.49;59.07;102910.94;4941350;28;45577;-51
2023/01/24 02:02:41;;;;;;;;;50.00;39.00;;;;;4.52;59.52;102916.25;4924092;28;45273;-52
2023/01/24 02:05:10;;;;;;;;;49.75;39.50;;;;;4.53;59.48;102907.63;4941206;28;45324;-52
2023/01/24 02:07:43;;;;;;;;;47.25;36.75;;;;;4.55;59.53;102921.63;4923925;28;47174;-49
2023/01/24 02:10:10;;;;;;;;;43.75;37.00;;;;;4.58;59.25;102919.97;4941254;28;45282;-50
2023/01/24 02:12:47;;;;;;;;;54.00;40.00;;;;;4.60;59.34;102924.41;4923569;28;45367;-53
2023/01/24 02:18:03;;;;;;;;;48.75;39.00;;;;;4.65;59.31;102916.81;4941132;28;45297;-53
2023/01/24 02:20:46;;;;;;;;;54.75;38.50;;;;;4.66;59.69;102916.88;4923869;28;45270;-49
2023/01/24 02:23:14;;;;;;;;;47.50;40.00;;;;;4.68;59.36;102917.84;4941090;28;45502;-56
2023/01/24 02:25:46;;;;;;;;;46.50;36.00;;;;;4.68;59.47;102912.63;4941021;28;45382;-52
2023/01/24 02:28:12;;;;;;;;;49.50;39.00;;;;;4.67;59.39;102908.25;4942149;28;45253;-49
2023/01/24 02:30:38;;;;;;;;;49.75;39.25;;;;;4.72;59.53;102914.56;4944410;28;45407;-51
2023/01/24 02:33:17;;;;;;;;;54.00;43.25;;;;;4.72;59.45;102909.34;4944593;28;45230;-52
2023/01/24 02:35:43;;;;;;;;;52.75;40.25;;;;;4.71;59.46;102906.69;4944325;28;45268;-51
2023/01/24 02:38:20;;;;;;;;;54.75;39.50;;;;;4.71;59.54;102911.88;4944168;28;46100;-51
2023/01/24 02:40:49;;;;;;;;;46.25;39.75;;;;;4.71;59.81;102898.84;4944196;28;45264;-53
2023/01/24 02:43:19;;;;;;;;;42.25;36.25;;;;;4.73;59.42;102899.84;4943927;28;45439;-53
2023/01/24 02:45:44;;;;;;;;;49.50;37.25;;;;;4.71;59.51;102891.03;4926673;28;45204;-53
2023/01/24 02:48:10;;;;;;;;;44.00;37.25;;;;;4.70;59.77;102890.16;4944062;28;45260;-53
2023/01/24 02:53:29;;;;;;;;;44.50;33.75;;;;;4.72;59.25;102895.44;4944079;28;45331;-52
2023/01/24 02:58:39;;;;;;;;;43.75;36.75;;;;;4.71;59.61;102894.53;4943665;28;45771;-53
2023/01/24 03:01:04;;;;;;;;;46.00;38.75;;;;;4.72;59.62;102898.03;4944086;28;45251;-52
2023/01/24 03:03:29;;;;;;;;;42.00;34.75;;;;;4.72;59.49;102896.31;4943983;28;45166;-53
2023/01/24 03:05:58;;;;;;;;;51.00;40.00;;;;;4.73;59.49;102894.63;4943727;28;45165;-53
2023/01/24 03:08:28;;;;;;;;;43.00;36.25;;;;;4.71;59.25;102885.84;4943700;28;45266;-51
2023/01/24 03:10:54;;;;;;;;;47.75;40.25;;;;;4.74;59.37;102901.59;4943718;28;45324;-52
2023/01/24 03:35:13;;;;;;;;;45.50;36.75;;;;;4.66;59.73;102898.66;4943608;28;45448;-52
2023/01/24 03:40:22;;;;;;;;;46.75;37.00;;;;;4.65;59.21;102907.28;4942381;28;45698;-51
2023/01/24 03:42:48;;;;;;;;;48.00;38.75;;;;;4.65;59.58;102901.19;4925619;28;45881;-49
2023/01/24 03:45:19;;;;;;;;;40.50;32.00;;;;;4.65;59.59;102902.06;4943349;28;45415;-53
2023/01/24 03:48:04;;;;;;;;;51.75;40.75;;;;;4.67;59.73;102904.75;4943332;28;45452;-52
2023/01/24 03:53:20;;;;;;;;;40.75;36.00;;;;;4.68;59.68;102906.56;4943145;28;45548;-50
2023/01/24 03:55:46;;;;;;;;;36.75;34.00;;;;;4.69;59.58;102906.63;4943361;28;45275;-52
2023/01/24 03:58:12;;;;;;;;;41.75;35.75;;;;;4.69;59.44;102908.31;4942533;28;45332;-52
2023/01/24 04:00:38;;;;;;;;;44.50;36.75;;;;;4.70;59.65;102908.41;4942946;28;46238;-52
2023/01/24 04:03:04;;;;;;;;;43.25;34.50;;;;;4.70;59.32;102907.50;4942885;28;45271;-53
2023/01/24 04:05:32;;;;;;;;;47.75;40.25;;;;;4.70;59.28;102903.19;4925828;28;45248;-52
2023/01/24 04:07:58;;;;;;;;;44.50;36.75;;;;;4.70;59.26;102897.06;4942819;28;45432;-52
2023/01/24 04:10:23;;;;;;;;;47.75;39.00;;;;;4.69;59.78;102906.63;4942796;28;45247;-49
2023/01/24 04:12:48;;;;;;;;;56.75;38.00;;;;;4.70;59.59;102910.09;4942165;28;45362;-53
2023/01/24 04:15:20;;;;;;;;;40.25;38.75;;;;;4.67;59.53;102908.25;4943191;28;45218;-51
2023/01/24 04:17:45;;;;;;;;;47.50;37.75;;;;;4.70;59.83;102902.28;4942764;28;45185;-52
2023/01/24 04:20:11;;;;;;;;;40.75;31.25;;;;;4.66;59.65;102903.84;4942633;28;46033;-53
2023/01/24 04:22:37;;;;;;;;;41.75;36.75;;;;;4.67;59.71;102899.56;4925451;28;45216;-53
2023/01/24 04:25:02;;;;;;;;;44.25;38.75;;;;;4.69;59.45;102903.09;4942749;28;45382;-52
2023/01/24 04:27:28;;;;;;;;;44.50;36.75;;;;;4.69;59.71;102905.69;4942373;28;45353;-51
2023/01/24 04:29:53;;;;;;;;;47.50;37.75;;;;;4.59;59.36;102888.81;4942586;28;45301;-50
2023/01/24 04:32:18;;;;;;;;;38.50;33.75;;;;;4.69;59.44;102901.41;4942412;28;45224;-53
2023/01/24 04:34:44;;;;;;;;;47.25;39.00;;;;;4.68;59.39;102902.22;4942718;28;45310;-53
2023/01/24 04:37:09;;;;;;;;;45.50;38.25;;;;;4.70;59.41;102907.50;4942309;28;45392;-49
2023/01/24 04:39:34;;;;;;;;;41.50;38.50;;;;;4.69;59.82;102900.50;4925159;28;47148;-49
2023/01/24 04:42:00;;;;;;;;;50.50;38.25;;;;;4.70;59.10;102902.28;4942174;28;45335;-48
2023/01/24 04:44:25;;;;;;;;;44.75;36.50;;;;;4.71;59.33;102909.28;4925026;28;45337;-52
2023/01/24 04:46:50;;;;;;;;;43.00;37.00;;;;;4.70;59.47;102899.69;4942234;28;45591;-52
2023/01/24 04:49:17;;;;;;;;;41.00;34.25;;;;;4.71;59.52;102910.16;4941981;28;45356;-51
2023/01/24 04:51:42;;;;;;;;;54.50;41.75;;;;;4.69;59.49;102903.09;4942121;28;45368;-52
2023/01/24 04:54:09;;;;;;;;;44.25;36.50;;;;;4.70;59.66;102916.22;4942151;28;45421;-52
2023/01/24 04:56:34;;;;;;;;;46.25;37.00;;;;;4.70;59.68;102917.91;4942000;28;45218;-50
2023/01/24 04:59:00;;;;;;;;;47.25;37.25;;;;;4.70;59.49;102917.91;4941768;28;46325;-52
2023/01/24 05:01:25;;;;;;;;;44.00;38.00;;;;;4.71;59.45;102917.09;4942059;28;45492;-51
2023/01/24 05:03:51;;;;;;;;;49.50;38.25;;;;;4.71;59.37;102912.75;4942153;28;45301;-51
2023/01/24 05:06:16;;;;;;;;;45.75;34.50;;;;;4.73;59.56;102920.66;4941881;28;45158;-50
2023/01/24 05:08:41;;;;;;;;;40.25;36.50;;;;;4.68;59.46;102907.44;4924491;28;47049;-48
2023/01/24 05:11:07;;;;;;;;;42.25;36.00;;;;;4.70;59.65;102916.22;4941802;28;45373;-49
2023/01/24 05:13:32;;;;;;;;;46.50;36.25;;;;;4.71;59.73;102911.88;4941664;28;45404;-49
2023/01/24 05:15:58;;;;;;;;;33.50;32.00;;;;;4.69;59.63;102908.31;4924704;28;45520;-50
2023/01/24 05:18:23;;;;;;;;;44.25;36.50;;;;;4.71;59.41;102911.88;4924400;28;47075;-50
2023/01/24 05:20:48;;;;;;;;;49.50;35.25;;;;;4.70;59.28;102923.13;4941828;28;45276;-49
2023/01/24 05:23:14;;;;;;;;;21.75;18.25;;;;;4.72;59.46;102926.69;4941907;28;45330;-50
2023/01/24 05:25:39;;;;;;;;;50.25;34.50;;;;;4.72;59.59;102921.50;4924476;28;45369;-49
2023/01/24 05:28:05;;;;;;;;;35.00;31.75;;;;;4.71;59.51;102924.91;4923958;28;47186;-52
2023/01/24 05:30:30;;;;;;;;;43.00;37.50;;;;;4.74;59.49;102927.63;4941678;28;45387;-53
2023/01/24 05:32:57;;;;;;;;;49.00;37.00;;;;;4.72;59.72;102924.09;4941603;28;45343;-53
2023/01/24 05:35:22;;;;;;;;;45.75;36.50;;;;;4.74;59.62;102931.97;4941458;28;45618;-53
2023/01/24 05:37:48;;;;;;;;;49.00;36.75;;;;;4.73;59.65;102936.31;4941464;28;46095;-51
2023/01/24 05:40:13;;;;;;;;;51.25;39.50;;;;;4.73;59.78;102931.09;4941450;28;45360;-49
2023/01/24 05:42:42;;;;;;;;;40.00;34.75;;;;;4.73;59.56;102933.69;4941146;28;45409;-52
2023/01/24 05:45:10;;;;;;;;;44.00;36.00;;;;;4.74;59.58;102934.56;4941481;28;45557;-53
2023/01/24 05:47:35;;;;;;;;;42.75;34.50;;;;;4.75;59.57;102933.75;4941126;28;46407;-53
2023/01/24 05:50:00;;;;;;;;;46.25;38.75;;;;;4.74;59.59;102939.78;4941282;28;45251;-51
2023/01/24 05:52:26;;;;;;;;;41.50;36.00;;;;;4.74;59.59;102931.97;4924676;28;45379;-51
2023/01/24 05:54:52;;;;;;;;;42.75;33.25;;;;;4.71;59.63;102936.22;4924049;28;46079;-53
2023/01/24 05:57:17;;;;;;;;;33.25;26.25;;;;;4.76;59.53;102938.16;4940749;28;45387;-52
2023/01/24 05:59:43;;;;;;;;;39.50;37.00;;;;;4.72;59.53;102935.38;4941384;28;45444;-50
2023/01/24 06:02:09;;;;;;;;;43.00;36.25;;;;;4.74;59.69;102937.19;4941387;28;45518;-53
2023/01/24 06:04:34;;;;;;;;;50.50;36.75;;;;;4.75;59.83;102938.97;4944568;28;45484;-51
2023/01/24 06:06:59;;;;;;;;;35.75;31.25;;;;;4.75;59.42;102939.84;4944251;28;46149;-53
2023/01/24 06:09:25;;;;;;;;;39.50;34.25;;;;;4.70;59.44;102937.06;4944489;28;45249;-56
2023/01/24 06:11:50;;;;;;;;;48.75;39.25;;;;;4.72;59.56;102939.72;4943995;28;45424;-50
2023/01/24 06:14:16;;;;;;;;;42.50;36.25;;;;;4.72;59.76;102934.50;4944113;28;45222;-52
2023/01/24 06:16:43;;;;;;;;;45.00;38.00;;;;;4.70;59.76;102942.25;4944320;28;45341;-53
2023/01/24 06:19:10;;;;;;;;;44.50;39.25;;;;;4.68;59.72;102943.91;4927111;28;45459;-53
2023/01/24 06:22:01;;;;;;;;;53.50;42.00;;;;;4.66;59.72;102949.84;4944378;28;45304;-53
2023/01/24 06:24:27;;;;;;;;;45.00;37.00;;;;;4.63;59.97;102944.50;4926993;28;45359;-53
2023/01/24 06:26:53;;;;;;;;;47.50;39.75;;;;;4.65;59.70;102940.25;4944077;28;45264;-53
2023/01/24 06:29:20;;;;;;;;;42.50;38.25;;;;;4.66;59.74;102949.84;4927726;28;45207;-53
2023/01/24 06:31:54;;;;;;;;;37.00;31.25;;;;;4.67;59.76;102947.31;4945071;28;45486;-49
2023/01/24 06:34:26;;;;;;;;;43.50;35.50;;;;;4.69;59.79;102947.38;4946000;28;45474;-49
2023/01/24 06:36:55;;;;;;;;;48.00;39.00;;;;;4.69;59.89;102953.50;4944546;28;45539;-52
2023/01/24 06:39:21;;;;;;;;;50.00;38.00;;;;;4.68;59.89;102949.09;4946602;28;45359;-49
2023/01/24 06:41:47;;;;;;;;;50.75;41.00;;;;;4.71;59.82;102956.16;4929394;28;45349;-52
2023/01/24 06:44:13;;;;;;;;;44.50;36.75;;;;;4.71;59.62;102953.56;4943846;28;45542;-47
2023/01/24 06:46:38;;;;;;;;;35.75;29.00;;;;;4.73;59.51;102962.34;4943883;28;45471;-49
2023/01/24 06:49:03;;;;;;;;;47.00;37.00;;;;;4.74;59.72;102964.09;4926398;28;45344;-51
2023/01/24 06:51:29;;;;;;;;;44.25;38.75;;;;;4.66;59.54;102942.94;4934832;28;45438;-50
2023/01/24 06:53:54;;;;;;;;;45.00;38.25;;;;;4.77;59.75;102972.06;4943651;28;45328;-55
2023/01/24 06:56:19;;;;;;;;;39.25;36.50;;;;;4.75;59.99;102965.91;4933443;28;46846;-50
2023/01/24 06:58:45;;;;;;;;;51.00;42.75;;;;;4.77;59.75;102968.56;4941509;28;45272;-52
2023/01/24 07:01:10;;;;;;;;;52.50;40.00;;;;;4.77;59.78;102969.47;4949831;28;45527;-54
2023/01/24 07:03:36;;;;;;;;;43.50;35.25;;;;;4.77;59.98;102971.16;4949216;28;45604;-54
2023/01/24 07:06:01;;;;;;;;;51.75;42.25;;;;;4.78;59.72;102975.56;4950849;28;46971;-53
2023/01/24 07:08:26;;;;;;;;;51.25;39.75;;;;;4.75;59.28;102962.41;4950339;28;45397;-54
2023/01/24 07:10:52;;;;;;;;;50.50;39.25;;;;;4.77;59.62;102966.88;4933060;28;45408;-56
2023/01/24 07:13:17;;;;;;;;;50.75;40.00;;;;;4.75;59.88;102967.63;4947287;28;45395;-60
2023/01/24 07:15:43;;;;;;;;;44.75;36.00;;;;;4.73;60.17;102970.16;4950472;28;45685;-54
2023/01/24 07:18:11;;;;;;;;;52.25;42.00;;;;;4.71;59.98;102979.63;4948669;28;45402;-53
2023/01/24 07:20:37;;;;;;;;;45.75;39.25;;;;;4.72;59.70;102969.25;4943297;28;45471;-54
2023/01/24 07:23:02;;;;;;;;;51.00;40.75;;;;;4.69;59.65;102976.03;4926112;28;45539;-53
2023/01/24 07:25:28;;;;;;;;;55.25;42.00;;;;;4.72;59.90;102978.78;4948301;28;46123;-53
2023/01/24 07:27:54;;;;;;;;;55.00;42.75;;;;;4.68;59.88;102976.88;4952278;28;45481;-55
2023/01/24 07:30:20;;;;;;;;;58.50;44.00;;;;;4.71;59.75;102983.09;4948539;28;45513;-54
2023/01/24 07:32:45;;;;;;;;;45.50;39.75;;;;;4.72;59.83;102984.00;4933204;28;45895;-53
2023/01/24 07:35:11;;;;;;;;;41.75;37.50;;;;;4.70;59.79;102988.25;4951305;28;45298;-53
2023/01/24 07:37:36;;;;;;;;;47.25;39.75;;;;;4.72;59.81;102995.31;4949344;28;45332;-53
2023/01/24 07:40:02;;;;;;;;;48.75;39.50;;;;;4.74;59.77;102992.75;4951135;28;45547;-51
2023/01/24 07:42:27;;;;;;;;;63.50;44.50;;;;;4.72;59.64;102991.81;4951476;28;45462;-52
2023/01/24 07:44:53;;;;;;;;;55.75;41.00;;;;;4.74;60.11;102995.38;4955423;28;46163;-52
2023/01/24 07:47:19;;;;;;;;;54.50;40.75;;;;;4.66;59.81;102983.72;4959761;28;45415;-52
2023/01/24 07:49:45;;;;;;;;;50.00;38.75;;;;;4.74;59.91;103010.13;4942232;28;45549;-52
2023/01/24 07:52:10;;;;;;;;;49.50;38.25;;;;;4.74;59.86;103005.78;4945012;28;45320;-51
2023/01/24 07:54:36;;;;;;;;;57.50;42.75;;;;;4.69;60.24;103012.50;4925191;28;45393;-50
2023/01/24 07:57:01;;;;;;;;;49.75;42.00;;;;;4.70;60.23;103009.09;4942424;28;45356;-56
2023/01/24 07:59:26;;;;;;;;;58.25;43.00;;;;;4.70;60.26;103027.31;4944088;28;45486;-49
2023/01/24 08:01:52;;;;;;;;;53.00;44.00;;;;;4.69;59.93;103020.31;4942553;28;45308;-51
2023/01/24 08:04:17;;;;;;;;;55.00;42.50;;;;;4.68;60.08;103010.75;4942484;28;45458;-51
2023/01/24 08:09:27;;;;;;;;;54.00;42.75;;;;;4.70;59.99;103022.09;4942941;28;45345;-52
2023/01/24 08:11:52;;;;;;;;;54.50;42.25;;;;;4.69;60.08;103018.63;4942552;28;45306;-51
2023/01/24 08:14:17;;;;;;;;;55.50;40.00;;;;;4.67;60.11;103019.38;4924990;28;46002;-50
2023/01/24 08:16:43;;;;;;;;;58.50;45.00;;;;;4.69;60.08;103012.50;4925710;28;45319;-52
2023/01/24 08:19:08;;;;;;;;;56.25;42.75;;;;;4.71;59.96;103023.91;4942987;28;45244;-51
2023/01/24 08:21:33;;;;;;;;;58.50;47.25;;;;;4.69;59.81;103017.72;4942595;28;45327;-52
2023/01/24 08:23:59;;;;;;;;;54.00;40.25;;;;;4.71;60.35;103021.28;4942620;28;45370;-54
2023/01/24 08:26:24;;;;;;;;;53.00;42.50;;;;;4.72;60.01;103033.50;4941859;28;45236;-52
2023/01/24 08:28:49;;;;;;;;;43.75;38.00;;;;;4.74;60.35;103031.84;4925351;28;45435;-50
2023/01/24 08:31:15;;;;;;;;;61.00;45.25;;;;;4.75;60.27;103035.34;4942368;28;45176;-51
2023/01/24 08:33:40;;;;;;;;;54.25;41.50;;;;;4.75;59.97;103036.22;4942214;28;45963;-53
2023/01/24 08:36:06;;;;;;;;;56.00;41.50;;;;;4.77;60.12;103034.59;4926424;28;45625;-52
2023/01/24 08:38:31;;;;;;;;;50.00;40.75;;;;;4.78;60.06;103032.88;4944615;28;45266;-52
2023/01/24 08:40:56;;;;;;;;;55.00;40.00;;;;;4.80;60.16;103037.34;4942232;28;45216;-53
2023/01/24 08:43:22;;;;;;;;;54.00;39.00;;;;;4.78;60.38;103043.28;4931838;28;46386;-53
2023/01/24 08:45:48;;;;;;;;;56.00;42.25;;;;;4.79;60.42;103039.88;4942913;28;45459;-53
2023/01/24 08:48:13;;;;;;;;;56.75;45.00;;;;;4.78;60.30;103044.22;4942319;28;45250;-50
2023/01/24 08:50:38;;;;;;;;;57.25;43.50;;;;;4.80;60.27;103052.97;4943534;28;45628;-50
2023/01/24 08:53:04;;;;;;;;;60.00;45.25;;;;;4.80;60.21;103042.53;4942157;28;45411;-49
2023/01/24 08:55:29;;;;;;;;;70.00;51.75;;;;;4.83;60.35;103062.63;4942146;28;45454;-52
2023/01/24 08:58:02;;;;;;;;;52.50;42.75;;;;;4.82;60.25;103048.72;4941870;28;45315;-50
2023/01/24 09:00:28;;;;;;;;;63.00;45.50;;;;;4.84;60.09;103054.91;4942090;28;45252;-52
2023/01/24 09:02:54;;;;;;;;;55.00;43.00;;;;;4.84;60.02;103057.53;4942153;28;45313;-51
2023/01/24 09:05:19;;;;;;;;;57.50;44.75;;;;;4.85;60.19;103067.09;4924476;28;45276;-53
2023/01/24 09:07:46;;;;;;;;;63.75;47.25;;;;;4.88;60.15;103069.88;4942086;28;45827;-51
2023/01/24 09:10:11;;;;;;;;;56.00;42.50;;;;;4.89;60.40;103070.75;4924522;28;45509;-53
2023/01/24 09:12:37;;;;;;;;;62.75;45.25;;;;;4.90;60.19;103069.94;4941275;28;46147;-50
2023/01/24 09:15:02;;;;;;;;;62.75;49.50;;;;;4.91;60.42;103076.94;4924398;28;45348;-51
2023/01/24 09:17:28;;;;;;;;;58.75;43.75;;;;;4.92;60.18;103072.59;4924735;28;45366;-49
2023/01/24 09:19:53;;;;;;;;;58.50;44.00;;;;;4.94;60.34;103082.28;4924556;28;45308;-52
2023/01/24 09:22:18;;;;;;;;;64.25;48.25;;;;;4.92;60.13;103070.91;4941716;28;45442;-50
2023/01/24 09:24:43;;;;;;;;;61.25;44.00;;;;;4.95;60.16;103072.75;4941561;28;45352;-49
2023/01/24 09:27:10;;;;;;;;;52.50;41.25;;;;;4.96;60.31;103072.81;4941318;28;45336;-51
2023/01/24 09:29:35;;;;;;;;;57.50;46.50;;;;;4.98;60.01;103072.88;4924384;28;45258;-50
2023/01/24 09:32:01;;;;;;;;;66.50;49.25;;;;;5.00;60.07;103073.84;4941474;28;46094;-50
2023/01/24 09:34:26;;;;;;;;;61.00;46.25;;;;;5.02;60.25;103072.22;4941760;28;45214;-53
2023/01/24 09:36:51;;;;;;;;;54.00;40.75;;;;;5.04;60.04;103068.88;4940958;28;45564;-49
2023/01/24 09:39:17;;;;;;;;;55.25;44.25;;;;;5.08;60.35;103072.50;4941312;28;45243;-50
2023/01/24 09:42:17;;;;;;;;;59.00;44.75;;;;;5.09;60.32;103074.28;4923947;28;47134;-51
2023/01/24 09:44:48;;;;;;;;;57.25;47.00;;;;;5.09;60.33;103066.44;4909342;28;45189;-50
2023/01/24 09:47:32;;;;;;;;;59.50;43.75;;;;;5.11;60.25;103070.03;4941414;28;45325;-53
2023/01/24 09:50:09;;;;;;;;;55.25;44.00;;;;;5.08;60.31;103069.91;4941411;28;45248;-51
2023/01/24 09:52:40;;;;;;;;;54.25;41.00;;;;;5.14;60.17;103083.19;4941562;28;46431;-51
2023/01/24 09:55:29;;;;;;;;;61.25;47.25;;;;;5.16;60.33;103083.28;4941400;28;45232;-53
2023/01/24 09:58:01;;;;;;;;;54.00;42.50;;;;;5.16;60.24;103091.97;4923836;28;45629;-49
2023/01/24 10:00:29;;;;;;;;;57.50;43.75;;;;;5.18;60.32;103092.97;4941379;28;45251;-49
2023/01/24 10:02:56;;;;;;;;;59.25;43.50;;;;;5.20;60.22;103096.50;4941144;28;45388;-53
2023/01/24 10:05:30;;;;;;;;;56.25;44.50;;;;;5.16;60.39;103091.97;4941047;28;45367;-49
2023/01/24 10:08:26;;;;;;;;;58.25;45.75;;;;;5.20;60.43;103093.91;4941165;28;45471;-52
2023/01/24 10:11:13;;;;;;;;;50.00;42.00;;;;;5.23;60.53;103094.88;4935226;28;45425;-52
2023/01/24 10:13:41;;;;;;;;;53.75;44.00;;;;;5.24;60.39;103096.66;4940791;28;45416;-52
2023/01/24 10:16:06;;;;;;;;;55.50;45.75;;;;;5.27;60.40;103091.56;4941068;28;45281;-49
2023/01/24 10:18:58;;;;;;;;;55.50;44.50;;;;;5.28;60.31;103086.44;4941553;28;45162;-48
2023/01/24 10:21:29;;;;;;;;;54.50;40.75;;;;;5.30;60.09;103076.97;4923762;28;45460;-51
2023/01/24 10:23:59;;;;;;;;;55.25;42.00;;;;;5.29;60.12;103080.38;4940896;28;46330;-51
2023/01/24 10:26:38;;;;;;;;;57.50;40.25;;;;;5.31;60.14;103083.09;4940971;28;45413;-51
2023/01/24 10:29:30;;;;;;;;;54.75;43.00;;;;;5.32;60.19;103090.97;4940832;28;45347;-48
2023/01/24 10:32:00;;;;;;;;;46.75;38.75;;;;;5.36;60.25;103085.06;4917220;28;45275;-52
2023/01/24 10:34:40;;;;;;;;;51.25;40.50;;;;;5.38;60.52;103079.91;4940750;28;45422;-53
2023/01/24 10:37:20;;;;;;;;;55.75;42.25;;;;;5.38;60.47;103074.69;4940747;28;45235;-50
2023/01/24 10:39:46;;;;;;;;;50.75;41.25;;;;;5.39;60.33;103076.47;4929991;28;45351;-52
2023/01/24 10:42:30;;;;;;;;;54.75;42.50;;;;;5.42;60.33;103079.25;4940389;28;45398;-51
2023/01/24 10:45:00;;;;;;;;;58.75;45.50;;;;;5.43;60.23;103067.09;4940723;28;46161;-51
2023/01/24 10:47:47;;;;;;;;;54.00;38.50;;;;;5.47;60.37;103075.13;4940734;28;45479;-51
2023/01/24 10:50:15;;;;;;;;;54.75;42.50;;;;;5.49;60.42;103068.25;4943940;28;45184;-48
2023/01/24 10:52:40;;;;;;;;;56.75;41.00;;;;;5.52;60.30;103067.47;4944087;28;45445;-51
2023/01/24 10:55:46;;;;;;;;;48.25;38.50;;;;;5.55;60.37;103067.63;4943756;28;46183;-49
2023/01/24 10:58:20;;;;;;;;;48.75;39.25;;;;;5.57;60.37;103072.91;4884181;29;45311;-49
2023/01/24 11:00:46;;;;;;;;;55.25;41.25;;;;;5.58;60.58;103069.47;4884511;29;45537;-50
2023/01/24 11:03:22;;;;;;;;;58.25;43.00;;;;;5.60;60.37;103067.84;4890532;28;45850;-48
2023/01/24 11:05:52;;;;;;;;;53.50;39.75;;;;;5.61;60.29;103064.38;4943653;28;46553;-52
2023/01/24 11:08:24;;;;;;;;;49.50;40.75;;;;;5.63;60.22;103055.78;4943604;28;45385;-51
2023/01/24 11:11:00;;;;;;;;;51.25;42.00;;;;;5.65;60.39;103048.06;4943992;28;45617;-52
2023/01/24 11:13:28;;;;;;;;;49.50;39.50;;;;;5.62;60.35;103047.91;4943161;28;45268;-49
2023/01/24 11:16:17;;;;;;;;;51.50;40.00;;;;;5.68;60.41;103056.00;4943507;28;45356;-52
2023/01/24 11:19:03;;;;;;;;;58.25;39.25;;;;;5.69;60.45;103055.19;4934241;28;45400;-51
2023/01/24 11:21:30;;;;;;;;;44.75;39.00;;;;;5.68;60.80;103048.19;4943529;28;45264;-51
2023/01/24 11:24:05;;;;;;;;;47.50;38.75;;;;;5.69;60.72;103039.53;4943584;28;45336;-50
2023/01/24 11:26:32;;;;;;;;;50.25;42.00;;;;;5.73;60.57;103040.56;4943307;28;45731;-49
2023/01/24 11:29:01;;;;;;;;;43.50;35.00;;;;;5.75;60.43;103038.88;4943298;28;45187;-48
2023/01/24 11:31:32;;;;;;;;;55.75;42.25;;;;;5.77;60.48;103030.28;4943782;28;45316;-51
2023/01/24 11:34:32;;;;;;;;;53.75;39.50;;;;;5.80;60.58;103029.56;4943208;28;45593;-52
2023/01/24 11:37:36;;;;;;;;;52.00;39.25;;;;;5.83;60.57;103030.56;4927173;28;47120;-50
2023/01/24 11:40:04;;;;;;;;;53.25;41.25;;;;;5.86;60.51;103033.31;4901923;28;45464;-51
2023/01/24 11:42:44;;;;;;;;;51.50;39.25;;;;;5.88;60.53;103035.09;4942830;28;45317;-52
2023/01/24 11:45:34;;;;;;;;;59.00;40.75;;;;;5.91;60.61;103037.81;4943231;28;45273;-50
2023/01/24 11:48:36;;;;;;;;;47.25;40.25;;;;;5.85;60.31;103021.09;4943112;28;46457;-53
2023/01/24 11:51:25;;;;;;;;;55.75;43.50;;;;;5.99;60.39;103037.34;4943183;28;45253;-52
2023/01/24 11:53:55;;;;;;;;;53.75;40.50;;;;;5.99;60.48;103026.91;4943006;28;45199;-52
2023/01/24 11:56:32;;;;;;;;;45.75;40.00;;;;;6.04;60.42;103032.31;4942893;28;45438;-51
2023/01/24 11:59:15;;;;;;;;;49.50;39.25;;;;;6.08;60.48;103025.53;4942646;28;46143;-51
2023/01/24 12:01:43;;;;;;;;;51.75;40.75;;;;;6.08;60.50;103028.13;4942118;28;45497;-52
2023/01/24 12:04:20;;;;;;;;;53.25;39.00;;;;;6.11;60.29;103030.84;4943130;28;45294;-52
2023/01/24 12:06:54;;;;;;;;;48.00;40.00;;;;;6.13;60.37;103023.97;4942519;28;45558;-50